createdAt,value
2022-09-11T00:01:43.723Z,15.85
2022-09-11T00:04:12.434Z,15.30
2022-09-11T00:06:41.075Z,14.90
2022-09-11T00:09:09.690Z,15.82
2022-09-11T00:11:41.606Z,14.15
2022-09-11T00:14:11.471Z,15.02
2022-09-11T00:16:41.692Z,15.32
2022-09-11T00:21:40.061Z,14.93
2022-09-11T00:24:10.042Z,14.23
2022-09-11T00:26:42.584Z,15.65
2022-09-11T00:29:11.938Z,16.10
2022-09-11T00:31:40.306Z,15.80
2022-09-11T00:34:08.940Z,16.50
2022-09-11T00:36:41.328Z,16.35
2022-09-11T00:39:11.549Z,14.25
2022-09-11T00:41:44.905Z,15.07
2022-09-11T00:45:06.576Z,13.88
2022-09-11T00:47:35.152Z,13.77
2022-09-11T00:50:12.234Z,15.02
2022-09-11T00:52:42.525Z,14.50
2022-09-11T00:55:14.679Z,15.07
2022-09-11T00:57:48.208Z,13.63
2022-09-11T01:00:17.329Z,14.32
2022-09-11T01:02:48.932Z,13.20
2022-09-11T01:05:18.383Z,12.32
2022-09-11T01:07:47.677Z,12.98
2022-09-11T01:10:16.361Z,11.13
2022-09-11T01:12:53.705Z,13.02
2022-09-11T01:15:25.533Z,13.10
2022-09-11T01:18:00.423Z,13.10
2022-09-11T01:20:36.648Z,13.88
2022-09-11T01:23:40.735Z,12.88
2022-09-11T01:26:26.400Z,12.77
2022-09-11T01:28:59.601Z,12.43
2022-09-11T01:31:32.445Z,12.88
2022-09-11T01:34:04.956Z,12.48
2022-09-11T01:36:38.720Z,13.13
2022-09-11T01:39:09.014Z,12.73
2022-09-11T01:41:41.815Z,12.85
2022-09-11T01:44:15.314Z,13.35
2022-09-11T01:46:45.907Z,13.07
2022-09-11T01:49:18.902Z,13.70
2022-09-11T01:51:48.457Z,14.15
2022-09-11T01:54:18.819Z,13.90
2022-09-11T01:59:25.526Z,14.07
2022-09-11T02:01:59.206Z,14.60
2022-09-11T02:04:32.458Z,13.55
2022-09-11T02:07:06.512Z,14.57
2022-09-11T02:09:49.726Z,16.15
2022-09-11T02:12:20.492Z,16.90
2022-09-11T02:14:51.476Z,17.55
2022-09-11T02:17:25.810Z,17.25
2022-09-11T02:19:54.848Z,18.13
2022-09-11T02:22:24.408Z,19.55
2022-09-11T02:24:53.896Z,20.42
2022-09-11T02:27:24.971Z,20.30
2022-09-11T02:29:55.129Z,20.55
2022-09-11T02:32:25.667Z,22.08
2022-09-11T02:34:55.455Z,22.70
2022-09-11T02:37:34.682Z,23.33
2022-09-11T02:40:37.536Z,23.33
2022-09-11T02:43:19.247Z,26.45
2022-09-11T02:45:55.006Z,26.33
2022-09-11T02:48:37.888Z,27.15
2022-09-11T02:51:13.093Z,27.20
2022-09-11T02:53:45.066Z,27.98
2022-09-11T02:56:17.217Z,27.88
2022-09-11T02:58:48.597Z,27.30
2022-09-11T03:01:18.918Z,26.08
2022-09-11T03:03:48.801Z,27.92
2022-09-11T03:06:19.795Z,27.35
2022-09-11T03:08:48.936Z,27.50
2022-09-11T03:11:20.095Z,26.67
2022-09-11T03:13:50.636Z,26.20
2022-09-11T03:16:20.857Z,28.60
2022-09-11T03:18:49.568Z,27.00
2022-09-11T03:21:18.191Z,26.65
2022-09-11T03:23:46.800Z,23.25
2022-09-11T03:26:17.349Z,22.88
2022-09-11T03:28:49.524Z,25.90
2022-09-11T03:31:20.255Z,25.67
2022-09-11T03:33:49.553Z,25.35
2022-09-11T03:36:18.579Z,25.27
2022-09-11T03:38:48.126Z,23.15
2022-09-11T03:41:18.424Z,24.90
2022-09-11T03:43:47.017Z,23.15
2022-09-11T03:46:15.667Z,24.08
2022-09-11T03:48:46.993Z,23.38
2022-09-11T03:51:16.290Z,23.58
2022-09-11T03:53:45.628Z,22.45
2022-09-11T03:56:15.082Z,22.88
2022-09-11T03:58:48.378Z,21.20
2022-09-11T04:01:19.132Z,22.40
2022-09-11T04:03:50.141Z,20.85
2022-09-11T04:06:32.235Z,20.13
2022-09-11T04:09:01.459Z,20.98
2022-09-11T04:11:32.403Z,20.83
2022-09-11T04:14:04.727Z,22.08
2022-09-11T04:16:33.481Z,20.05
2022-09-11T04:19:05.095Z,19.63
2022-09-11T04:21:35.241Z,18.95
2022-09-11T04:24:04.137Z,19.52
2022-09-11T04:26:34.926Z,20.65
2022-09-11T04:29:24.946Z,20.65
2022-09-11T04:31:53.821Z,18.67
2022-09-11T04:34:27.402Z,19.50
2022-09-11T04:36:56.752Z,18.95
2022-09-11T04:39:25.790Z,19.05
2022-09-11T04:41:55.400Z,18.98
2022-09-11T04:44:24.250Z,18.87
2022-09-11T04:46:52.563Z,17.13
2022-09-11T04:49:21.976Z,18.73
2022-09-11T04:51:51.988Z,18.38
2022-09-11T04:54:23.959Z,17.92
2022-09-11T04:56:54.797Z,18.45
2022-09-11T04:59:24.649Z,17.35
2022-09-11T05:02:00.551Z,17.75
2022-09-11T05:04:30.497Z,18.50
2022-09-11T05:07:00.677Z,16.85
2022-09-11T05:09:29.502Z,17.45
2022-09-11T05:11:59.793Z,16.75
2022-09-11T05:14:32.828Z,16.98
2022-09-11T05:17:03.639Z,17.67
2022-09-11T05:19:34.065Z,18.20
2022-09-11T05:22:04.410Z,15.70
2022-09-11T05:24:34.212Z,17.15
2022-09-11T05:27:02.980Z,15.40
2022-09-11T05:29:32.651Z,15.65
2022-09-11T05:32:10.138Z,18.42
2022-09-11T05:34:38.433Z,14.95
2022-09-11T05:37:11.751Z,14.15
2022-09-11T05:39:46.619Z,13.88
2022-09-11T05:42:16.883Z,15.15
2022-09-11T05:44:50.355Z,13.98
2022-09-11T05:47:18.975Z,14.15
2022-09-11T05:49:50.854Z,13.40
2022-09-11T05:52:20.988Z,13.07
2022-09-11T05:54:50.078Z,10.98
2022-09-11T05:57:19.982Z,12.73
2022-09-11T05:59:48.706Z,12.27
2022-09-11T06:02:17.329Z,12.18
2022-09-11T06:04:53.202Z,12.35
2022-09-11T06:07:24.794Z,12.10
2022-09-11T06:09:54.110Z,11.75
2022-09-11T06:12:22.677Z,12.05
2022-09-11T06:14:52.188Z,11.43
2022-09-11T06:17:20.768Z,10.43
2022-09-11T06:19:49.019Z,10.23
2022-09-11T06:22:20.143Z,9.90
2022-09-11T06:24:50.300Z,11.32
2022-09-11T06:27:19.176Z,10.93
2022-09-11T06:29:50.887Z,10.75
2022-09-11T06:32:21.761Z,10.63
2022-09-11T06:34:50.079Z,10.10
2022-09-11T06:37:19.071Z,10.48
2022-09-11T06:39:50.743Z,10.73
2022-09-11T06:42:26.012Z,9.68
2022-09-11T06:44:56.001Z,9.60
2022-09-11T06:47:25.165Z,11.07
2022-09-11T06:49:54.385Z,10.43
2022-09-11T06:52:37.785Z,10.65
2022-09-11T06:55:27.628Z,9.90
2022-09-11T06:58:02.313Z,10.68
2022-09-11T07:00:32.838Z,11.35
2022-09-11T07:03:03.075Z,10.65
2022-09-11T07:05:32.136Z,10.88
2022-09-11T07:08:03.045Z,10.70
2022-09-11T07:10:35.818Z,9.52
2022-09-11T07:13:04.479Z,11.43
2022-09-11T07:15:33.289Z,8.93
2022-09-11T07:20:32.603Z,10.75
2022-09-11T07:23:01.373Z,10.45
2022-09-11T07:25:32.543Z,10.25
2022-09-11T07:28:03.616Z,10.27
2022-09-11T07:30:32.575Z,10.13
2022-09-11T07:33:02.151Z,10.77
2022-09-11T07:35:31.591Z,11.03
2022-09-11T07:38:00.169Z,10.95
2022-09-11T07:40:29.350Z,10.60
2022-09-11T07:43:00.598Z,10.38
2022-09-11T07:45:32.426Z,10.10
2022-09-11T07:48:02.730Z,10.13
2022-09-11T07:50:33.292Z,9.20
2022-09-11T07:53:02.217Z,10.25
2022-09-11T07:55:31.057Z,10.27
2022-09-11T07:57:59.718Z,10.52
2022-09-11T08:00:34.046Z,11.05
2022-09-11T08:03:14.989Z,11.32
2022-09-11T08:05:43.712Z,10.95
2022-09-11T08:08:13.810Z,11.57
2022-09-11T08:10:42.065Z,11.48
2022-09-11T08:13:11.213Z,11.25
2022-09-11T08:15:47.554Z,11.68
2022-09-11T08:18:16.396Z,11.55
2022-09-11T08:20:45.292Z,11.05
2022-09-11T08:23:15.393Z,11.68
2022-09-11T08:25:44.827Z,11.52
2022-09-11T08:28:13.471Z,10.88
2022-09-11T08:30:43.481Z,9.98
2022-09-11T08:33:13.583Z,9.57
2022-09-11T08:35:42.966Z,10.77
2022-09-11T08:38:11.534Z,10.63
2022-09-11T08:40:40.079Z,10.75
2022-09-11T08:43:15.457Z,10.00
2022-09-11T08:45:45.712Z,9.82
2022-09-11T08:48:14.403Z,9.70
2022-09-11T08:50:44.438Z,10.70
2022-09-11T08:53:18.855Z,10.98
2022-09-11T08:55:49.850Z,11.70
2022-09-11T08:58:28.164Z,11.98
2022-09-11T09:01:06.007Z,11.15
2022-09-11T09:04:05.142Z,11.15
2022-09-11T09:06:47.930Z,11.60
2022-09-11T09:09:21.857Z,10.15
2022-09-11T09:11:56.116Z,11.05
2022-09-11T09:14:58.191Z,11.75
2022-09-11T09:17:33.863Z,9.75
2022-09-11T09:20:06.307Z,9.38
2022-09-11T09:22:40.895Z,9.43
2022-09-11T09:25:13.582Z,9.30
2022-09-11T09:27:47.280Z,9.85
2022-09-11T09:30:18.448Z,10.15
2022-09-11T09:32:50.806Z,9.25
2022-09-11T09:35:24.365Z,9.10
2022-09-11T09:37:54.573Z,7.53
2022-09-11T09:40:25.350Z,6.47
2022-09-11T09:43:18.159Z,5.07
2022-09-11T09:45:59.691Z,6.18
2022-09-11T09:48:32.781Z,5.78
2022-09-11T09:51:04.194Z,5.45
2022-09-11T09:53:36.122Z,5.20
2022-09-11T09:56:06.044Z,5.30
2022-09-11T09:58:36.185Z,5.13
2022-09-11T10:03:34.849Z,4.28
2022-09-11T10:06:03.507Z,4.53
2022-09-11T10:08:34.678Z,5.10
2022-09-11T10:11:04.807Z,5.07
2022-09-11T10:13:34.561Z,4.57
2022-09-11T10:16:04.784Z,5.10
2022-09-11T10:18:40.187Z,4.90
2022-09-11T10:21:24.175Z,5.40
2022-09-11T10:23:55.542Z,4.72
2022-09-11T10:26:30.663Z,4.72
2022-09-11T10:29:02.907Z,5.00
2022-09-11T10:31:31.479Z,5.72
2022-09-11T10:34:01.837Z,5.00
2022-09-11T10:39:00.523Z,5.05
2022-09-11T10:41:32.313Z,5.22
2022-09-11T10:44:02.535Z,5.57
2022-09-11T10:46:39.304Z,5.95
2022-09-11T10:49:18.865Z,6.22
2022-09-11T10:52:02.298Z,6.93
2022-09-11T10:54:39.968Z,5.93
2022-09-11T10:57:16.264Z,6.90
2022-09-11T10:59:55.519Z,8.10
2022-09-11T11:02:31.808Z,7.22
2022-09-11T11:05:04.944Z,7.47
2022-09-11T11:07:53.358Z,7.20
2022-09-11T11:10:32.460Z,8.43
2022-09-11T11:13:14.650Z,7.05
2022-09-11T11:15:53.976Z,7.10
2022-09-11T11:18:44.134Z,7.53
2022-09-11T11:21:25.337Z,7.75
2022-09-11T11:24:08.857Z,8.02
2022-09-11T11:26:45.623Z,7.78
2022-09-11T11:29:28.535Z,8.25
2022-09-11T11:32:11.489Z,7.85
2022-09-11T11:35:01.317Z,7.45
2022-09-11T11:37:34.486Z,8.00
2022-09-11T11:40:07.063Z,7.90
2022-09-11T11:42:37.141Z,7.65
2022-09-11T11:45:11.696Z,8.23
2022-09-11T11:47:43.695Z,7.72
2022-09-11T11:50:16.100Z,7.82
2022-09-11T11:52:53.648Z,8.55
2022-09-11T11:55:24.992Z,7.90
2022-09-11T11:58:04.995Z,7.85
2022-09-11T12:00:36.091Z,8.00
2022-09-11T12:03:10.538Z,7.20
2022-09-11T12:05:40.385Z,7.32
2022-09-11T12:08:14.556Z,6.95
2022-09-11T12:10:46.068Z,7.47
2022-09-11T12:13:16.952Z,6.93
2022-09-11T12:16:03.699Z,6.47
2022-09-11T12:18:32.871Z,6.85
2022-09-11T12:21:37.352Z,6.30
2022-09-11T12:24:21.436Z,6.60
2022-09-11T12:27:28.750Z,5.97
2022-09-11T12:29:59.191Z,5.90
2022-09-11T12:35:38.252Z,5.78
2022-09-11T12:38:15.605Z,5.95
2022-09-11T12:40:51.855Z,5.63
2022-09-11T12:43:51.689Z,5.50
2022-09-11T12:47:08.008Z,5.50
2022-09-11T12:49:38.336Z,4.97
2022-09-11T12:54:40.805Z,5.40
2022-09-11T12:57:12.866Z,4.15
2022-09-11T12:59:44.544Z,4.70
2022-09-11T13:02:25.867Z,4.93
2022-09-11T13:04:56.393Z,4.80
2022-09-11T13:07:29.098Z,4.18
2022-09-11T13:10:03.514Z,5.18
2022-09-11T13:12:52.009Z,4.80
2022-09-11T13:15:41.101Z,4.38
2022-09-11T13:18:32.924Z,3.88
2022-09-11T13:21:04.895Z,4.10
2022-09-11T13:23:34.555Z,4.32
2022-09-11T13:26:04.860Z,4.30
2022-09-11T13:28:38.998Z,3.47
2022-09-11T13:31:08.331Z,3.78
2022-09-11T13:33:36.928Z,2.83
2022-09-11T13:36:08.915Z,3.28
2022-09-11T13:38:38.661Z,2.97
2022-09-11T13:41:08.736Z,3.38
2022-09-11T13:43:39.746Z,3.35
2022-09-11T13:46:26.689Z,3.92
2022-09-11T13:48:59.331Z,2.65
2022-09-11T13:51:31.356Z,2.78
2022-09-11T13:54:06.514Z,2.83
2022-09-11T13:56:45.466Z,2.70
2022-09-11T13:59:36.761Z,2.70
2022-09-11T14:02:08.638Z,2.60
2022-09-11T14:04:41.343Z,2.40
2022-09-11T14:07:23.070Z,2.47
2022-09-11T14:09:53.846Z,2.42
2022-09-11T14:12:23.180Z,2.63
2022-09-11T14:14:54.880Z,2.42
2022-09-11T14:17:23.732Z,2.33
2022-09-11T14:19:57.714Z,2.80
2022-09-11T14:22:32.263Z,2.45
2022-09-11T14:25:06.273Z,2.05
2022-09-11T14:27:36.709Z,2.67
2022-09-11T14:30:28.276Z,2.50
2022-09-11T14:33:18.383Z,2.75
2022-09-11T14:35:48.240Z,3.78
2022-09-11T14:38:20.588Z,2.08
2022-09-11T14:40:52.226Z,2.08
2022-09-11T14:43:24.376Z,2.25
2022-09-11T14:45:54.796Z,1.98
2022-09-11T14:50:51.967Z,2.30
2022-09-11T14:53:27.860Z,1.73
2022-09-11T14:55:57.169Z,1.92
2022-09-11T14:58:26.282Z,2.10
2022-09-11T15:00:55.350Z,2.05
2022-09-11T15:03:24.590Z,2.05
2022-09-11T15:05:56.245Z,2.35
2022-09-11T15:08:26.709Z,1.73
2022-09-11T15:10:55.118Z,2.20
2022-09-11T15:13:23.778Z,1.80
2022-09-11T15:15:53.979Z,2.05
2022-09-11T15:18:22.698Z,2.00
2022-09-11T15:20:51.263Z,1.80
2022-09-11T15:23:19.843Z,1.50
2022-09-11T15:25:49.450Z,1.77
2022-09-11T15:28:18.025Z,1.90
2022-09-11T15:30:46.540Z,1.98
2022-09-11T15:33:15.101Z,2.10
2022-09-11T15:35:43.952Z,2.28
2022-09-11T15:38:13.909Z,1.60
2022-09-11T15:40:42.086Z,2.33
2022-09-11T15:43:12.166Z,1.88
2022-09-11T15:45:44.016Z,1.98
2022-09-11T15:48:12.874Z,2.35
2022-09-11T15:50:41.435Z,1.98
2022-09-11T15:53:10.235Z,2.13
2022-09-11T15:55:38.487Z,1.67
2022-09-11T15:58:07.129Z,1.85
2022-09-11T16:00:37.382Z,2.13
2022-09-11T16:03:05.982Z,1.92
2022-09-11T16:05:41.100Z,2.20
2022-09-11T16:08:09.712Z,2.28
2022-09-11T16:10:39.146Z,1.88
2022-09-11T16:13:07.723Z,2.45
2022-09-11T16:15:37.661Z,2.05
2022-09-11T16:18:09.533Z,2.08
2022-09-11T16:20:39.417Z,1.77
2022-09-11T16:23:09.483Z,2.17
2022-09-11T16:25:39.928Z,2.30
2022-09-11T16:28:09.569Z,2.25
2022-09-11T16:30:45.102Z,2.47
2022-09-11T16:33:16.242Z,2.50
2022-09-11T16:35:45.317Z,2.30
2022-09-11T16:38:14.833Z,2.17
2022-09-11T16:40:43.080Z,2.38
2022-09-11T16:43:12.112Z,2.08
2022-09-11T16:45:42.220Z,2.40
2022-09-11T16:48:10.855Z,2.30
2022-09-11T16:50:39.464Z,2.10
2022-09-11T16:53:08.191Z,2.65
2022-09-11T16:55:36.435Z,2.65
2022-09-11T16:58:05.190Z,2.78
2022-09-11T17:00:33.744Z,2.80
2022-09-11T17:03:03.678Z,2.40
2022-09-11T17:05:32.256Z,2.72
2022-09-11T17:08:00.777Z,2.47
2022-09-11T17:10:29.297Z,2.90
2022-09-11T17:12:58.202Z,2.97
2022-09-11T17:15:26.808Z,3.28
2022-09-11T17:17:55.847Z,3.50
2022-09-11T17:20:25.780Z,3.42
2022-09-11T17:22:58.041Z,3.67
2022-09-11T17:25:26.876Z,3.72
2022-09-11T17:27:55.432Z,3.22
2022-09-11T17:30:24.054Z,3.97
2022-09-11T17:32:52.985Z,3.70
2022-09-11T17:35:21.584Z,3.40
2022-09-11T17:37:51.739Z,3.88
2022-09-11T17:40:20.683Z,4.03
2022-09-11T17:42:49.366Z,4.10
2022-09-11T17:45:17.946Z,4.50
2022-09-11T17:47:46.503Z,4.03
2022-09-11T17:50:15.556Z,4.15
2022-09-11T17:52:43.832Z,4.75
2022-09-11T17:55:13.936Z,4.45
2022-09-11T17:57:44.431Z,4.22
2022-09-11T18:02:44.120Z,4.53
2022-09-11T18:05:12.889Z,4.53
2022-09-11T18:07:42.274Z,4.70
2022-09-11T18:10:11.325Z,4.20
2022-09-11T18:12:41.370Z,4.10
2022-09-11T18:15:11.293Z,4.28
2022-09-11T18:17:39.902Z,5.18
2022-09-11T18:20:09.815Z,4.20
2022-09-11T18:22:39.849Z,3.83
2022-09-11T18:25:09.953Z,4.63
2022-09-11T18:27:39.876Z,5.13
2022-09-11T18:30:12.687Z,4.32
2022-09-11T18:32:41.321Z,3.65
2022-09-11T18:35:10.831Z,3.95
2022-09-11T18:37:39.159Z,3.67
2022-09-11T18:40:10.216Z,4.70
2022-09-11T18:42:40.925Z,4.50
2022-09-11T18:45:12.434Z,4.75
2022-09-11T18:47:41.130Z,4.57
2022-09-11T18:50:10.644Z,4.43
2022-09-11T18:52:38.834Z,4.55
2022-09-11T18:55:07.922Z,4.13
2022-09-11T18:57:40.884Z,4.82
2022-09-11T19:00:15.736Z,5.03
2022-09-11T19:02:45.303Z,7.20
2022-09-11T19:05:15.578Z,6.00
2022-09-11T19:07:44.514Z,5.88
2022-09-11T19:10:13.494Z,6.65
2022-09-11T19:12:42.489Z,6.60
2022-09-11T19:15:12.662Z,5.45
2022-09-11T19:17:42.089Z,4.70
2022-09-11T19:20:12.275Z,4.05
2022-09-11T19:22:40.583Z,3.92
2022-09-11T19:25:10.336Z,3.33
2022-09-11T19:27:39.110Z,3.33
2022-09-11T19:30:08.821Z,4.50
2022-09-11T19:32:38.810Z,3.97
2022-09-11T19:35:07.968Z,4.35
2022-09-11T19:37:36.322Z,4.53
2022-09-11T19:40:06.952Z,3.22
2022-09-11T19:42:35.575Z,3.28
2022-09-11T19:45:05.959Z,3.33
2022-09-11T19:50:04.469Z,4.03
2022-09-11T19:52:33.274Z,3.80
2022-09-11T19:55:03.962Z,4.40
2022-09-11T19:57:32.674Z,3.70
2022-09-11T20:00:01.462Z,3.70
2022-09-11T20:02:30.207Z,3.97
2022-09-11T20:05:00.311Z,3.97
2022-09-11T20:07:35.285Z,3.97
2022-09-11T20:12:37.133Z,4.10
2022-09-11T20:15:06.824Z,3.90
2022-09-11T20:17:35.567Z,4.13
2022-09-11T20:20:04.730Z,3.95
2022-09-11T20:22:34.463Z,3.10
2022-09-11T20:25:03.232Z,3.72
2022-09-11T20:27:31.852Z,3.17
2022-09-11T20:30:00.797Z,3.28
2022-09-11T20:32:29.502Z,3.15
2022-09-11T20:34:58.100Z,3.15
2022-09-11T20:37:26.378Z,2.92
2022-09-11T20:39:56.438Z,3.25
2022-09-11T20:42:25.100Z,3.25
2022-09-11T20:44:53.681Z,2.92
2022-09-11T20:47:22.393Z,3.05
2022-09-11T20:49:50.879Z,2.67
2022-09-11T20:52:19.547Z,3.13
2022-09-11T20:54:49.189Z,3.28
2022-09-11T20:57:19.189Z,3.13
2022-09-11T20:59:47.791Z,3.10
2022-09-11T21:02:17.613Z,3.30
2022-09-11T21:04:46.179Z,2.80
2022-09-11T21:07:14.841Z,3.05
2022-09-11T21:09:43.526Z,2.67
2022-09-11T21:12:12.125Z,3.00
2022-09-11T21:14:43.187Z,3.40
2022-09-11T21:17:11.822Z,2.75
2022-09-11T21:19:40.129Z,2.95
2022-09-11T21:22:08.733Z,3.05
2022-09-11T21:24:37.976Z,3.30
2022-09-11T21:27:06.855Z,2.42
2022-09-11T21:29:35.460Z,2.65
2022-09-11T21:32:05.728Z,2.88
2022-09-11T21:34:34.053Z,2.47
2022-09-11T21:37:02.718Z,2.75
2022-09-11T21:39:31.380Z,3.30
2022-09-11T21:42:00.093Z,3.00
2022-09-11T21:44:28.750Z,2.97
2022-09-11T21:46:57.476Z,2.58
2022-09-11T21:49:27.190Z,2.60
2022-09-11T21:51:55.812Z,2.90
2022-09-11T21:54:26.780Z,3.50
2022-09-11T21:56:57.435Z,3.25
2022-09-11T21:59:26.027Z,2.95
2022-09-11T22:01:54.511Z,3.40
2022-09-11T22:04:24.209Z,3.28
2022-09-11T22:06:55.709Z,3.43
2022-09-11T22:09:24.306Z,3.33
2022-09-11T22:11:55.746Z,3.58
2022-09-11T22:14:28.786Z,3.25
2022-09-11T22:16:57.116Z,3.10
2022-09-11T22:19:25.832Z,4.43
2022-09-11T22:21:55.938Z,3.47
2022-09-11T22:24:24.602Z,3.10
2022-09-11T22:26:53.264Z,2.90
2022-09-11T22:29:21.944Z,3.10
2022-09-11T22:31:50.274Z,3.63
2022-09-11T22:34:18.870Z,3.45
2022-09-11T22:36:47.620Z,3.70
2022-09-11T22:39:17.686Z,3.25
2022-09-11T22:41:46.265Z,4.13
2022-09-11T22:44:15.064Z,3.33
2022-09-11T22:46:48.253Z,3.20
2022-09-11T22:49:17.836Z,3.35
2022-09-11T22:51:46.470Z,3.92
2022-09-11T22:54:15.330Z,4.45
2022-09-11T22:56:45.554Z,4.70
2022-09-11T22:59:14.234Z,4.80
2022-09-11T23:01:42.539Z,4.85
2022-09-11T23:04:11.201Z,3.88
2022-09-11T23:06:57.211Z,3.90
2022-09-11T23:09:25.857Z,3.83
2022-09-11T23:11:56.352Z,3.95
2022-09-11T23:16:52.960Z,3.97
2022-09-11T23:19:21.775Z,4.25
2022-09-11T23:21:52.466Z,3.35
2022-09-11T23:24:21.835Z,3.65
2022-09-11T23:26:50.453Z,3.42
2022-09-11T23:29:20.421Z,3.55
2022-09-11T23:31:48.762Z,3.77
2022-09-11T23:34:17.952Z,3.65
2022-09-11T23:36:47.263Z,3.42
2022-09-11T23:39:16.148Z,3.67
2022-09-11T23:41:44.811Z,3.50
2022-09-11T23:44:13.561Z,3.35
2022-09-11T23:46:43.293Z,3.53
2022-09-11T23:49:12.383Z,3.70
2022-09-11T23:51:41.751Z,3.97
2022-09-11T23:54:10.306Z,3.35
2022-09-11T23:56:39.404Z,3.72
2022-09-11T23:59:08.126Z,3.45
